Time;durP1;ratioP1;P1;durP2;ratioP2;P2;SDS_P1;SDS_P2;PMS_P1;PMS_P2;Temp;Humidity;BMP_temperature;BMP_pressure;BME280_temperature;BME280_humidity;BME280_pressure;Samples;Min_cycle;Max_cycle;Signal;HPM_P1;HPM_P2
2023/10/16 00:01:19;;;;;;;3.72;0.30;;;8.00;99.90;;;;;;6218948;22;20398;-96
2023/10/16 00:03:45;;;;;;;5.77;0.20;;;8.00;99.90;;;;;;6216470;22;20364;-94
2023/10/16 00:06:12;;;;;;;5.00;0.30;;;8.00;99.90;;;;;;6218256;22;20368;-95
2023/10/16 00:08:47;;;;;;;3.45;0.20;;;8.00;99.90;;;;;;6217068;22;20872;-96
2023/10/16 00:11:17;;;;;;;5.40;0.20;;;7.90;99.90;;;;;;6218079;22;20836;-95
2023/10/16 00:13:47;;;;;;;5.60;0.60;;;7.80;99.90;;;;;;6217347;22;20455;-95
2023/10/16 00:16:17;;;;;;;2.55;0.20;;;7.80;99.90;;;;;;6216237;22;20920;-96
2023/10/16 00:18:45;;;;;;;6.32;0.30;;;7.80;99.90;;;;;;6218177;22;20360;-94
2023/10/16 00:21:13;;;;;;;4.85;0.30;;;7.70;99.90;;;;;;6215609;22;20388;-95
2023/10/16 00:23:40;;;;;;;6.75;0.30;;;7.70;99.90;;;;;;6218045;22;20658;-95
2023/10/16 00:26:07;;;;;;;5.28;0.35;;;7.70;99.90;;;;;;6215670;22;20360;-95
2023/10/16 00:28:34;;;;;;;5.97;0.32;;;7.80;99.90;;;;;;6217858;22;20368;-94
2023/10/16 00:31:00;;;;;;;4.88;0.30;;;7.80;99.90;;;;;;6216359;22;20375;-96
2023/10/16 00:33:26;;;;;;;5.17;0.40;;;8.00;99.90;;;;;;6216593;22;20395;-95
2023/10/16 00:35:52;;;;;;;6.17;0.50;;;7.90;99.90;;;;;;6217357;22;20372;-93
2023/10/16 00:38:19;;;;;;;6.97;0.40;;;7.90;99.90;;;;;;6215737;22;20820;-94
2023/10/16 00:43:33;;;;;;;7.00;0.60;;;8.10;99.90;;;;;;6240923;22;20368;-94
2023/10/16 00:46:06;;;;;;;7.10;0.40;;;8.30;99.90;;;;;;6217197;22;20372;-94
2023/10/16 00:48:34;;;;;;;6.63;0.47;;;8.10;99.90;;;;;;6216905;22;20453;-95
2023/10/16 00:51:06;;;;;;;4.43;0.50;;;8.20;99.90;;;;;;6216686;22;20429;-94
2023/10/16 00:53:34;;;;;;;6.20;0.60;;;8.20;99.90;;;;;;6217088;22;20364;-95
2023/10/16 00:56:07;;;;;;;6.80;0.77;;;8.20;99.90;;;;;;6215609;22;20407;-94
2023/10/16 00:58:35;;;;;;;4.68;0.70;;;8.20;99.90;;;;;;6218086;22;20376;-94
2023/10/16 01:01:05;;;;;;;10.03;0.80;;;8.30;99.90;;;;;;6216976;22;20475;-93
2023/10/16 01:03:34;;;;;;;7.97;1.10;;;8.30;99.90;;;;;;6216650;22;20381;-94
2023/10/16 01:06:01;;;;;;;8.25;0.70;;;8.30;99.90;;;;;;6217367;22;20360;-94
2023/10/16 01:08:28;;;;;;;6.00;1.52;;;8.30;99.90;;;;;;6216630;22;20369;-94
2023/10/16 01:10:57;;;;;;;8.27;1.30;;;8.30;99.90;;;;;;6217942;22;20368;-94
2023/10/16 01:13:28;;;;;;;9.10;1.52;;;8.20;99.90;;;;;;6218214;22;20372;-94
2023/10/16 01:15:56;;;;;;;10.73;1.67;;;8.20;99.90;;;;;;6217459;22;20376;-95
2023/10/16 01:18:23;;;;;;;5.85;1.48;;;8.20;99.90;;;;;;6216382;22;20427;-94
2023/10/16 01:20:50;;;;;;;7.20;1.80;;;8.10;99.90;;;;;;6216795;22;20396;-95
2023/10/16 01:23:20;;;;;;;8.82;2.25;;;8.10;99.90;;;;;;6218056;22;20447;-95
2023/10/16 01:25:48;;;;;;;8.05;1.30;;;8.30;99.90;;;;;;6218210;22;20797;-94
2023/10/16 01:28:16;;;;;;;8.45;1.10;;;8.10;99.90;;;;;;6219395;22;20367;-94
2023/10/16 01:30:47;;;;;;;5.88;0.80;;;8.10;99.90;;;;;;6217254;22;20364;-94
2023/10/16 01:33:18;;;;;;;7.80;0.88;;;8.10;99.90;;;;;;6219546;22;20372;-94
2023/10/16 01:35:46;;;;;;;6.68;0.65;;;8.10;99.90;;;;;;6218526;22;20394;-93
2023/10/16 01:38:19;;;;;;;9.38;0.52;;;8.10;99.90;;;;;;6218305;22;20371;-93
2023/10/16 01:41:07;;;;;;;5.27;0.50;;;8.20;99.90;;;;;;6219137;22;20396;-93
2023/10/16 01:43:34;;;;;;;6.82;0.40;;;8.20;99.90;;;;;;6218063;22;20368;-93
2023/10/16 01:46:08;;;;;;;5.27;0.40;;;8.20;99.90;;;;;;6219762;22;20750;-94
2023/10/16 01:48:39;;;;;;;6.47;0.50;;;8.30;99.90;;;;;;6187921;23;20382;-93
2023/10/16 01:51:11;;;;;;;6.80;0.50;;;8.20;99.90;;;;;;6188729;23;20405;-94
2023/10/16 01:53:40;;;;;;;5.10;0.60;;;8.30;99.90;;;;;;6188890;23;20694;-94
2023/10/16 01:56:14;;;;;;;6.20;0.60;;;8.20;99.90;;;;;;6187820;23;20376;-94
2023/10/16 01:58:49;;;;;;;8.88;0.50;;;8.20;99.90;;;;;;6189582;23;20362;-94
2023/10/16 02:01:20;;;;;;;5.40;0.40;;;8.10;99.90;;;;;;6189325;23;20401;-95
2023/10/16 02:03:48;;;;;;;4.43;0.50;;;8.10;99.90;;;;;;6188754;23;20373;-94
2023/10/16 02:06:15;;;;;;;3.88;0.32;;;9.10;99.90;;;;;;6188277;23;20496;-92
2023/10/16 02:08:43;;;;;;;5.50;0.87;;;8.10;99.90;;;;;;6187708;23;20973;-93
2023/10/16 02:11:13;;;;;;;7.22;1.60;;;8.10;99.90;;;;;;6188721;23;20362;-96
2023/10/16 02:13:42;;;;;;;6.37;1.23;;;7.90;99.90;;;;;;6187020;23;20381;-94
2023/10/16 02:16:15;;;;;;;9.18;2.28;;;7.90;99.90;;;;;;6189138;23;20758;-94
2023/10/16 02:18:45;;;;;;;7.80;1.88;;;7.80;99.90;;;;;;6187753;23;20394;-94
2023/10/16 02:21:14;;;;;;;10.32;2.55;;;7.80;99.90;;;;;;6188977;23;20400;-94
2023/10/16 02:23:45;;;;;;;10.60;1.95;;;7.80;99.90;;;;;;6188438;23;20371;-95
2023/10/16 02:26:18;;;;;;;8.60;1.92;;;7.80;99.90;;;;;;6187907;23;20453;-93
2023/10/16 02:28:46;;;;;;;8.32;1.75;;;7.60;99.90;;;;;;6188657;23;20746;-91
2023/10/16 02:31:19;;;;;;;10.90;2.47;;;7.80;99.90;;;;;;6186572;23;20370;-93
2023/10/16 02:33:56;;;;;;;14.02;2.92;;;8.10;99.90;;;;;;6188599;23;20453;-93
2023/10/16 02:36:22;;;;;;;7.28;1.83;;;7.90;99.90;;;;;;6187302;23;20421;-93
2023/10/16 02:38:48;;;;;;;10.45;2.30;;;8.00;99.90;;;;;;6187690;23;20369;-95
2023/10/16 02:41:20;;;;;;;7.67;1.60;;;8.60;99.90;;;;;;6213378;23;20396;-93
2023/10/16 02:43:47;;;;;;;8.68;1.02;;;8.10;99.90;;;;;;6211612;23;20374;-95
2023/10/16 02:46:19;;;;;;;7.00;0.80;;;8.10;99.90;;;;;;6188924;23;20703;-94
2023/10/16 02:48:44;;;;;;;6.75;0.90;;;8.10;99.90;;;;;;6210632;23;20370;-94
2023/10/16 02:51:11;;;;;;;5.72;0.80;;;8.10;99.90;;;;;;6212118;23;20456;-94
2023/10/16 02:53:41;;;;;;;8.07;0.90;;;8.10;99.90;;;;;;6211358;23;20373;-94
2023/10/16 02:56:17;;;;;;;7.47;0.90;;;8.10;99.90;;;;;;6210408;23;20367;-95
2023/10/16 02:58:44;;;;;;;5.25;0.57;;;8.10;99.90;;;;;;6188540;23;20672;-94
2023/10/16 03:01:18;;;;;;;6.68;1.00;;;8.20;99.90;;;;;;6187232;23;20405;-93
2023/10/16 03:03:46;;;;;;;4.80;0.60;;;8.20;99.90;;;;;;6189014;23;20424;-94
2023/10/16 03:06:12;;;;;;;7.43;1.05;;;8.20;99.90;;;;;;6187073;23;20409;-95
2023/10/16 03:08:39;;;;;;;6.43;0.70;;;8.30;99.90;;;;;;6190424;22;20374;-92
2023/10/16 03:11:09;;;;;;;10.40;1.13;;;8.30;99.90;;;;;;6212544;23;20449;-93
2023/10/16 03:13:36;;;;;;;6.60;1.00;;;8.00;99.90;;;;;;6187321;23;20987;-93
2023/10/16 03:16:17;;;;;;;7.25;0.80;;;8.40;99.90;;;;;;6188881;23;20474;-93
2023/10/16 03:18:44;;;;;;;7.28;1.02;;;8.40;99.90;;;;;;6186548;23;20729;-92
2023/10/16 03:23:49;;;;;;;7.95;0.90;;;8.40;99.90;;;;;;6211807;23;20385;-93
2023/10/16 03:28:53;;;;;;;13.80;2.00;;;8.40;99.90;;;;;;6213065;23;20870;-93
2023/10/16 03:31:20;;;;;;;10.95;1.83;;;8.50;99.90;;;;;;6186748;23;20677;-92
2023/10/16 03:33:47;;;;;;;8.18;1.38;;;8.50;99.90;;;;;;6188760;23;20367;-94
2023/10/16 03:36:15;;;;;;;10.57;2.10;;;8.70;99.90;;;;;;6185971;23;20462;-93
2023/10/16 03:38:42;;;;;;;12.02;2.47;;;8.50;99.90;;;;;;6188527;23;20427;-93
2023/10/16 03:41:19;;;;;;;9.77;2.38;;;8.60;99.90;;;;;;6189710;23;20800;-93
2023/10/16 03:44:14;;;;;;;9.98;2.30;;;8.60;99.90;;;;;;6187194;23;20431;-94
2023/10/16 03:46:44;;;;;;;8.25;2.28;;;8.60;99.90;;;;;;6212358;23;21215;-94
2023/10/16 03:49:14;;;;;;;9.60;2.67;;;8.50;99.90;;;;;;6186581;23;20366;-93
2023/10/16 03:51:41;;;;;;;9.75;2.28;;;8.50;99.90;;;;;;6188466;23;20371;-93
2023/10/16 03:54:11;;;;;;;11.88;2.70;;;8.50;99.90;;;;;;6187001;23;20365;-94
2023/10/16 03:56:39;;;;;;;11.17;2.80;;;8.40;99.90;;;;;;6187373;23;20373;-94
2023/10/16 03:59:06;;;;;;;8.63;2.00;;;8.40;99.90;;;;;;6188029;23;20404;-93
2023/10/16 04:01:37;;;;;;;7.80;1.35;;;8.30;99.90;;;;;;6186189;23;20480;-93
2023/10/16 04:04:07;;;;;;;10.35;1.58;;;8.30;99.90;;;;;;6188027;23;20819;-94
2023/10/16 04:06:39;;;;;;;7.72;1.50;;;8.30;99.90;;;;;;6186635;23;20373;-94
2023/10/16 04:09:06;;;;;;;8.15;1.05;;;8.30;99.90;;;;;;6188400;23;20626;-93
2023/10/16 04:11:32;;;;;;;11.32;1.50;;;8.30;99.90;;;;;;6187092;23;20363;-93
2023/10/16 04:13:59;;;;;;;7.87;1.13;;;8.20;99.90;;;;;;6187286;23;20555;-93
2023/10/16 04:18:51;;;;;;;7.20;1.27;;;8.40;99.90;;;;;;6211657;23;20370;-93
2023/10/16 04:21:37;;;;;;;10.85;1.50;;;8.30;99.90;;;;;;6187908;23;20420;-93
2023/10/16 04:24:05;;;;;;;6.10;1.10;;;8.30;99.90;;;;;;6186004;23;20366;-93
2023/10/16 04:26:34;;;;;;;6.68;1.08;;;8.30;99.90;;;;;;6187781;23;20476;-94
2023/10/16 04:34:34;;;;;;;8.90;1.33;;;8.40;99.90;;;;;;6212777;23;20374;-94
2023/10/16 04:37:29;;;;;;;8.75;1.30;;;8.50;99.90;;;;;;6210197;23;20378;-93
2023/10/16 04:47:48;;;;;;;7.05;1.13;;;8.50;99.90;;;;;;6213109;23;20366;-93
2023/10/16 04:50:15;;;;;;;10.88;1.40;;;8.60;99.90;;;;;;6186652;23;20453;-93
2023/10/16 06:14:14;;;;;;;13.48;2.78;;;8.00;99.90;;;;;;6214455;23;20870;-94
2023/10/16 06:16:52;;;;;;;7.80;1.75;;;7.90;99.90;;;;;;6187632;23;20374;-93
2023/10/16 06:19:18;;;;;;;12.23;3.15;;;7.90;99.90;;;;;;6188227;23;20846;-94
2023/10/16 06:21:46;;;;;;;11.80;3.67;;;8.30;99.90;;;;;;6188518;23;20763;-93
2023/10/16 06:24:44;;;;;;;8.70;2.83;;;7.90;99.90;;;;;;6187267;23;20892;-93
2023/10/16 06:27:11;;;;;;;19.17;6.22;;;7.90;99.90;;;;;;6189517;23;20377;-92
2023/10/16 06:29:49;;;;;;;10.95;4.50;;;8.00;99.90;;;;;;6188145;23;20370;-92
2023/10/16 06:32:22;;;;;;;12.23;7.10;;;8.00;99.90;;;;;;6187668;23;20366;-95
2023/10/16 06:35:05;;;;;;;13.15;6.38;;;8.00;99.90;;;;;;6189360;23;20370;-94
2023/10/16 06:37:33;;;;;;;20.98;11.23;;;8.10;99.90;;;;;;6186445;23;20415;-93
2023/10/16 06:40:09;;;;;;;20.10;12.70;;;8.10;99.90;;;;;;6188671;23;20390;-93
2023/10/16 06:42:35;;;;;;;31.08;18.83;;;8.10;99.90;;;;;;6188072;23;20374;-94
2023/10/16 06:45:07;;;;;;;19.98;10.38;;;8.80;99.90;;;;;;6188268;23;20369;-94
2023/10/16 06:47:35;;;;;;;13.60;4.95;;;8.20;99.90;;;;;;6188549;23;20782;-94
2023/10/16 06:52:54;;;;;;;16.42;7.35;;;8.30;99.90;;;;;;6212999;23;20900;-92
2023/10/16 06:55:23;;;;;;;15.27;6.65;;;8.40;99.90;;;;;;6186862;23;20420;-92
2023/10/16 06:57:49;;;;;;;10.75;5.20;;;8.40;99.90;;;;;;6188257;23;20374;-91
2023/10/16 07:00:23;;;;;;;10.80;4.45;;;8.50;99.90;;;;;;6187775;23;20424;-92
2023/10/16 07:02:56;;;;;;;11.35;4.30;;;8.50;99.90;;;;;;6187569;23;20363;-92
2023/10/16 07:05:24;;;;;;;11.60;4.97;;;8.50;99.90;;;;;;6188544;23;20397;-91
2023/10/16 07:07:56;;;;;;;14.60;5.55;;;8.60;99.90;;;;;;6186718;23;20378;-92
2023/10/16 07:10:23;;;;;;;13.98;6.10;;;8.70;99.90;;;;;;6188762;23;20392;-91
2023/10/16 07:13:02;;;;;;;11.93;4.87;;;8.70;99.90;;;;;;6187391;23;20362;-92
2023/10/16 07:15:30;;;;;;;10.23;4.45;;;8.80;99.90;;;;;;6187571;23;20378;-93
2023/10/16 07:18:02;;;;;;;11.43;4.70;;;8.80;99.90;;;;;;6188630;23;20445;-91
2023/10/16 07:20:30;;;;;;;13.68;5.65;;;9.10;99.90;;;;;;6186355;23;20408;-92
2023/10/16 07:22:59;;;;;;;13.32;5.57;;;9.00;99.90;;;;;;6188981;23;20366;-92
2023/10/16 07:25:37;;;;;;;17.95;6.85;;;9.00;99.90;;;;;;6186068;23;20423;-90
2023/10/16 07:28:10;;;;;;;19.42;9.88;;;9.00;99.90;;;;;;6187934;23;20369;-91
2023/10/16 07:30:42;;;;;;;13.67;8.03;;;9.20;99.90;;;;;;6187263;23;20451;-92
2023/10/16 07:33:15;;;;;;;14.70;8.27;;;9.30;99.90;;;;;;6186848;23;20381;-93
2023/10/16 07:35:49;;;;;;;13.45;7.00;;;9.40;99.90;;;;;;6187893;23;21157;-92
2023/10/16 07:38:19;;;;;;;15.50;6.50;;;9.50;99.90;;;;;;6185977;23;20859;-91
2023/10/16 07:41:09;;;;;;;13.90;5.45;;;9.60;99.90;;;;;;6214355;23;20396;-92
2023/10/16 07:43:36;;;;;;;14.98;4.57;;;9.70;99.90;;;;;;6187534;23;20762;-90
2023/10/16 07:46:19;;;;;;;10.93;3.83;;;9.70;99.90;;;;;;6187059;23;20366;-92
2023/10/16 07:48:46;;;;;;;13.18;2.95;;;9.70;99.90;;;;;;6188094;23;20432;-91
2023/10/16 07:51:15;;;;;;;12.32;2.70;;;9.80;99.90;;;;;;6184343;23;20406;-92
2023/10/16 07:53:43;;;;;;;10.32;2.30;;;9.80;99.90;;;;;;6187765;23;20430;-93
2023/10/16 07:59:08;;;;;;;8.82;1.77;;;10.00;99.90;;;;;;6211656;23;20405;-93
2023/10/16 08:01:42;;;;;;;8.35;1.67;;;10.00;99.90;;;;;;6186618;23;20396;-93
2023/10/16 08:04:19;;;;;;;5.07;0.80;;;9.90;99.90;;;;;;6185475;23;20415;-94
2023/10/16 08:06:48;;;;;;;11.75;2.00;;;9.70;99.90;;;;;;6187076;23;20453;-95
2023/10/16 08:12:12;;;;;;;11.73;1.58;;;10.20;99.90;;;;;;6212031;23;21040;-93
2023/10/16 08:14:41;;;;;;;8.32;1.35;;;10.20;99.90;;;;;;6187814;23;20397;-92
2023/10/16 08:17:23;;;;;;;8.88;1.23;;;10.00;99.90;;;;;;6210254;23;20396;-93
2023/10/16 08:19:50;;;;;;;10.70;1.40;;;9.80;99.90;;;;;;6187612;23;21103;-93
2023/10/16 08:22:16;;;;;;;8.85;1.30;;;10.20;99.90;;;;;;6186873;23;20447;-93
2023/10/16 08:24:57;;;;;;;9.52;1.50;;;10.40;99.90;;;;;;6211013;23;20455;-93
2023/10/16 08:27:40;;;;;;;8.60;1.60;;;10.10;99.90;;;;;;6187663;23;20370;-92
2023/10/16 08:33:06;;;;;;;10.98;1.80;;;10.40;99.90;;;;;;6210629;23;20826;-93
2023/10/16 08:35:38;;;;;;;10.10;1.88;;;11.20;99.90;;;;;;6210153;23;20386;-95
2023/10/16 10:39:29;;;;;;;4.93;0.30;;;13.30;99.90;;;;;;6159673;23;20378;-96
2023/10/16 11:43:21;;;;;;;;;;;;;;;;;;;;;
2023/10/16 11:52:27;;;;;;;4.00;0.20;;;14.00;99.90;;;;;;6235929;22;20954;-94
2023/10/16 12:07:43;;;;;;;4.70;0.30;;;14.40;99.90;;;;;;6202694;22;20409;-94
2023/10/16 12:10:37;;;;;;;6.00;0.50;;;14.40;99.90;;;;;;6199284;23;20406;-96
2023/10/16 12:13:14;;;;;;;5.03;0.60;;;14.30;99.90;;;;;;6178589;23;20370;-95
2023/10/16 12:16:53;;;;;;;5.85;0.50;;;14.20;99.90;;;;;;6145481;23;20412;-94
2023/10/16 12:19:24;;;;;;;5.00;0.50;;;14.00;99.90;;;;;;6073164;23;20382;-95
2023/10/16 12:21:52;;;;;;;2.60;0.30;;;14.00;99.90;;;;;;6116309;23;20659;-94
2023/10/16 12:27:43;;;;;;;3.95;0.30;;;14.00;99.90;;;;;;6142993;23;20383;-96
2023/10/16 12:32:51;;;;;;;4.30;0.20;;;14.00;99.90;;;;;;6177551;23;20395;-95
2023/10/16 12:39:25;;;;;;;4.70;0.40;;;13.90;99.90;;;;;;6255520;23;20398;-95
2023/10/16 12:42:05;;;;;;;3.00;0.47;;;14.00;99.90;;;;;;6238171;22;20362;-95
2023/10/16 12:44:39;;;;;;;3.50;0.30;;;14.00;99.90;;;;;;6234451;23;20408;-95
2023/10/16 12:47:05;;;;;;;4.93;0.40;;;14.00;99.90;;;;;;6229681;23;20354;-94
2023/10/16 12:49:37;;;;;;;4.65;0.35;;;14.00;99.90;;;;;;6228372;23;20381;-95
2023/10/16 12:52:05;;;;;;;4.53;0.40;;;14.40;99.90;;;;;;6229339;23;20374;-93
2023/10/16 12:54:44;;;;;;;4.65;0.40;;;14.20;99.90;;;;;;6237588;23;20424;-95
2023/10/16 13:01:59;;;;;;;6.93;0.40;;;14.20;97.40;;;;;;6143021;23;20408;-95
2023/10/16 13:04:45;;;;;;;5.88;0.40;;;14.30;97.10;;;;;;6171532;23;20421;-94
2023/10/16 13:07:23;;;;;;;3.92;0.30;;;14.20;99.90;;;;;;6240025;23;20369;-95
2023/10/16 13:46:01;;;;;;;5.28;0.50;;;14.30;99.20;;;;;;6159820;23;20411;-94
2023/10/16 13:48:28;;;;;;;5.13;0.43;;;14.30;99.90;;;;;;6165930;23;20378;-94
2023/10/16 13:51:35;;;;;;;7.70;0.50;;;14.20;98.60;;;;;;6179275;23;20431;-96
2023/10/16 13:54:50;;;;;;;5.97;0.50;;;14.20;96.80;;;;;;6145408;23;20407;-94
2023/10/16 13:58:27;;;;;;;5.85;0.30;;;13.90;99.90;;;;;;6223258;22;20388;-94
2023/10/16 14:01:31;;;;;;;6.43;0.50;;;14.00;99.90;;;;;;6222817;22;21338;-94
2023/10/16 14:03:58;;;;;;;3.20;0.30;;;14.00;99.90;;;;;;6227500;23;20374;-96
2023/10/16 14:19:06;;;;;;;;;;;;;;;;;;;;;
2023/10/16 14:31:20;;;;;;;3.63;0.30;;;13.50;97.40;;;;;;6165798;23;20406;-96
2023/10/16 14:33:49;;;;;;;4.05;0.22;;;14.30;95.30;;;;;;6139124;23;20386;-94
2023/10/16 14:36:44;;;;;;;;;;;;;;;;;;;;;
2023/10/16 15:32:51;;;;;;;4.90;0.40;;;12.70;99.90;;;;;;6211657;23;20413;-94
2023/10/16 15:35:39;;;;;;;4.05;0.38;;;12.80;99.90;;;;;;6178513;23;20462;-94
2023/10/16 15:39:03;;;;;;;2.75;0.30;;;12.60;99.90;;;;;;6159778;23;20382;-95
2023/10/16 15:42:26;;;;;;;;;;;;;;;;;;;;;
2023/10/16 15:45:00;;;;;;;4.83;0.40;;;12.50;99.90;;;;;;6187104;23;20379;-95
2023/10/16 15:47:28;;;;;;;4.38;0.40;;;12.90;99.90;;;;;;6166639;23;20429;-95
2023/10/16 15:49:58;;;;;;;3.28;0.40;;;12.30;99.90;;;;;;6163115;23;20372;-94
2023/10/16 15:52:24;;;;;;;5.22;0.40;;;12.40;99.90;;;;;;6165602;23;20384;-94
2023/10/16 15:54:50;;;;;;;4.95;0.35;;;12.20;99.90;;;;;;6167632;23;20747;-95
2023/10/16 15:57:16;;;;;;;4.25;0.30;;;12.50;99.90;;;;;;6164264;23;20383;-95
2023/10/16 15:59:43;;;;;;;5.30;0.30;;;12.10;99.90;;;;;;6168943;23;20368;-96
2023/10/16 16:02:11;;;;;;;4.10;0.70;;;12.10;99.90;;;;;;6163392;23;20828;-95
2023/10/16 16:07:43;;;;;;;5.15;0.70;;;12.00;99.90;;;;;;6058601;23;20407;-95
2023/10/16 16:10:11;;;;;;;5.10;0.80;;;11.70;99.90;;;;;;6167875;23;20431;-95
2023/10/16 16:15:48;;;;;;;4.50;0.60;;;11.60;99.90;;;;;;6248300;23;20409;-95
2023/10/16 16:18:18;;;;;;;5.93;0.50;;;12.00;99.90;;;;;;6217340;23;20378;-95
2023/10/16 16:20:47;;;;;;;5.53;0.60;;;11.50;99.90;;;;;;6222961;23;20381;-94
2023/10/16 16:23:13;;;;;;;4.97;0.40;;;11.40;99.90;;;;;;6218641;23;20385;-95
2023/10/16 16:25:42;;;;;;;4.43;0.50;;;11.30;99.90;;;;;;6220081;23;20378;-95
2023/10/16 16:28:08;;;;;;;4.70;0.60;;;11.20;99.90;;;;;;6220084;23;20404;-95
2023/10/16 16:30:34;;;;;;;4.90;0.50;;;11.20;99.90;;;;;;6216965;23;20375;-96
2023/10/16 16:33:55;;;;;;;4.35;0.50;;;11.10;99.90;;;;;;6221342;23;20813;-96
2023/10/16 16:36:40;;;;;;;4.40;0.40;;;10.70;99.90;;;;;;6208077;23;20390;-96
2023/10/16 16:39:12;;;;;;;3.90;0.60;;;11.00;99.90;;;;;;6223813;22;20362;-94
2023/10/16 16:42:03;;;;;;;;;;;;;;;;;;;;;
2023/10/16 16:44:29;;;;;;;5.73;0.60;;;11.00;99.90;;;;;;6217449;23;20699;-96
2023/10/16 16:46:57;;;;;;;4.17;0.50;;;10.90;99.90;;;;;;6190927;23;20458;-94
2023/10/16 16:49:26;;;;;;;6.95;0.70;;;10.80;99.90;;;;;;6217624;23;20358;-95
2023/10/16 16:51:52;;;;;;;6.15;0.80;;;10.80;99.90;;;;;;6199073;23;20389;-95
2023/10/16 16:54:18;;;;;;;6.23;0.70;;;11.50;99.90;;;;;;6190911;23;20868;-95
2023/10/16 16:56:44;;;;;;;5.40;0.53;;;10.60;99.90;;;;;;6191475;23;20401;-96
2023/10/16 16:59:12;;;;;;;5.93;0.60;;;10.50;99.90;;;;;;6203100;23;20370;-96
2023/10/16 17:01:48;;;;;;;4.80;0.50;;;10.60;99.90;;;;;;6264919;23;20699;-96
2023/10/16 17:04:25;;;;;;;4.85;0.70;;;10.30;99.90;;;;;;6258650;23;20357;-94
2023/10/16 17:06:51;;;;;;;5.27;0.70;;;10.40;99.90;;;;;;6193900;23;20366;-95
2023/10/16 17:09:23;;;;;;;5.78;0.77;;;10.50;99.90;;;;;;6201681;23;20370;-96
2023/10/16 17:11:52;;;;;;;5.03;0.70;;;10.60;99.90;;;;;;6227133;23;20370;-96
2023/10/16 17:14:22;;;;;;;6.43;1.00;;;10.50;99.90;;;;;;6210380;23;20370;-95
2023/10/16 17:16:53;;;;;;;5.60;0.63;;;10.20;99.90;;;;;;6171015;23;20401;-96
2023/10/16 17:19:24;;;;;;;4.32;0.93;;;10.20;99.90;;;;;;6199588;23;20510;-95
2023/10/16 17:22:05;;;;;;;;;;;;;;;;;;;;;
2023/10/16 17:24:31;;;;;;;4.82;1.02;;;10.20;99.90;;;;;;6224802;23;20438;-93
2023/10/16 17:26:56;;;;;;;6.13;0.90;;;10.40;99.90;;;;;;6191504;23;20397;-95
2023/10/16 17:29:23;;;;;;;5.37;0.90;;;9.80;99.90;;;;;;6189503;23;20366;-95
2023/10/16 17:31:51;;;;;;;8.32;1.35;;;9.90;99.90;;;;;;6198811;23;20853;-95
2023/10/16 17:34:24;;;;;;;7.15;1.90;;;10.00;99.90;;;;;;6191078;23;20378;-95
2023/10/16 17:36:51;;;;;;;7.73;2.00;;;9.80;99.90;;;;;;6194434;23;20421;-96
2023/10/16 17:39:19;;;;;;;8.93;2.85;;;9.90;99.90;;;;;;6194396;23;20381;-95
2023/10/16 17:41:46;;;;;;;8.35;3.13;;;9.70;99.90;;;;;;6189268;23;20691;-93
2023/10/16 17:44:12;;;;;;;7.82;2.75;;;9.60;99.90;;;;;;6190188;23;20362;-95
2023/10/16 17:46:40;;;;;;;7.88;2.38;;;9.40;99.90;;;;;;6188315;23;20455;-95
2023/10/16 17:49:07;;;;;;;7.57;2.45;;;9.20;99.90;;;;;;6191011;23;20412;-93
2023/10/16 17:51:37;;;;;;;5.50;1.40;;;9.40;99.90;;;;;;6188982;23;20854;-96
2023/10/16 17:54:06;;;;;;;5.45;1.58;;;9.20;99.90;;;;;;6191600;23;20385;-94
2023/10/16 17:56:41;;;;;;;5.72;2.20;;;9.30;99.90;;;;;;6205874;23;20394;-96
2023/10/16 17:59:11;;;;;;;5.50;1.95;;;9.00;99.90;;;;;;6205069;23;20370;-94
2023/10/16 18:01:37;;;;;;;6.20;2.33;;;9.00;99.90;;;;;;6195331;23;20366;-95
2023/10/16 18:04:07;;;;;;;5.35;1.92;;;9.20;99.90;;;;;;6189743;23;20374;-94
2023/10/16 18:06:35;;;;;;;7.60;1.90;;;9.00;99.90;;;;;;6195195;23;20722;-96
2023/10/16 18:09:08;;;;;;;4.53;1.73;;;8.80;99.90;;;;;;6217420;23;20372;-94
2023/10/16 18:11:38;;;;;;;8.25;3.67;;;9.00;99.90;;;;;;6193103;23;20370;-95
2023/10/16 18:14:06;;;;;;;11.77;5.00;;;9.10;99.90;;;;;;6189642;23;20366;-95
2023/10/16 18:16:33;;;;;;;7.90;4.23;;;8.80;99.90;;;;;;6189254;23;20397;-93
2023/10/16 18:19:02;;;;;;;9.95;5.05;;;8.80;99.90;;;;;;6189220;23;20421;-93
2023/10/16 18:21:29;;;;;;;13.77;6.15;;;8.70;99.90;;;;;;6187573;23;20389;-95
2023/10/16 18:23:55;;;;;;;7.03;4.50;;;8.70;99.90;;;;;;6190758;23;20453;-96
2023/10/16 18:26:42;;;;;;;;;;;;;;;;;;;;;
2023/10/16 18:29:32;;;;;;;7.40;4.43;;;8.60;99.90;;;;;;6221051;23;20484;-96
2023/10/16 18:31:57;;;;;;;9.00;4.63;;;8.50;99.90;;;;;;6214974;23;20366;-94
2023/10/16 18:34:53;;;;;;;8.55;4.10;;;8.50;99.90;;;;;;6216697;23;20384;-95
2023/10/16 18:37:26;;;;;;;7.45;3.20;;;8.40;99.90;;;;;;6224396;23;20423;-96
2023/10/16 18:39:55;;;;;;;6.53;3.67;;;8.40;99.90;;;;;;6196693;23;20691;-95
2023/10/16 18:42:21;;;;;;;11.32;4.80;;;8.40;99.90;;;;;;6217122;23;20460;-95
2023/10/16 18:44:46;;;;;;;10.67;4.53;;;8.40;99.90;;;;;;6220749;23;20378;-94
2023/10/16 18:47:19;;;;;;;8.93;4.43;;;8.40;99.90;;;;;;6230264;23;20378;-94
2023/10/16 18:49:45;;;;;;;13.50;5.20;;;8.20;99.90;;;;;;6218072;23;20438;-95
2023/10/16 18:52:11;;;;;;;12.00;4.90;;;8.00;99.90;;;;;;6217389;23;20405;-95
2023/10/16 18:54:37;;;;;;;6.90;4.57;;;8.20;99.90;;;;;;6213363;23;20389;-95
2023/10/16 18:57:04;;;;;;;6.88;3.47;;;8.20;99.90;;;;;;6222840;23;20396;-93
2023/10/16 18:59:59;;;;;;;9.02;4.15;;;8.10;99.90;;;;;;6224579;23;20385;-95
2023/10/16 19:02:35;;;;;;;9.90;4.68;;;8.10;99.90;;;;;;6221033;23;20366;-94
2023/10/16 19:05:40;;;;;;;;;;;;;;;;;;;;;
2023/10/16 19:08:22;;;;;;;;;;;;;;;;;;;;;
2023/10/16 19:10:58;;;;;;;9.50;3.45;;;7.90;99.90;;;;;;6081744;23;20888;-94
2023/10/16 19:13:26;;;;;;;8.05;4.45;;;7.90;99.90;;;;;;6188661;23;20759;-94
2023/10/16 19:15:52;;;;;;;9.27;4.93;;;7.80;99.90;;;;;;6215058;23;20389;-93
2023/10/16 19:18:18;;;;;;;8.50;4.68;;;7.80;99.90;;;;;;6214397;23;20405;-94
2023/10/16 19:20:45;;;;;;;8.90;3.67;;;7.70;99.90;;;;;;6214365;23;20374;-92
2023/10/16 19:23:11;;;;;;;11.15;4.78;;;7.60;99.90;;;;;;6215333;23;20366;-93
2023/10/16 19:25:37;;;;;;;13.10;5.70;;;7.60;99.90;;;;;;6213041;23;20405;-93
2023/10/16 19:28:04;;;;;;;15.35;7.35;;;7.60;99.90;;;;;;6215295;23;20461;-94
2023/10/16 19:30:31;;;;;;;17.17;8.10;;;7.50;99.90;;;;;;6211988;23;20874;-93
2023/10/16 19:32:57;;;;;;;13.63;6.68;;;7.40;99.90;;;;;;6214919;23;20441;-93
2023/10/16 19:35:23;;;;;;;11.98;5.85;;;7.40;99.90;;;;;;6214634;23;20390;-93
2023/10/16 19:37:59;;;;;;;11.15;5.32;;;7.50;99.90;;;;;;6214589;23;20373;-94
2023/10/16 19:40:25;;;;;;;14.02;6.63;;;7.20;99.90;;;;;;6217974;23;20845;-94
2023/10/16 19:42:51;;;;;;;9.35;4.97;;;7.40;99.90;;;;;;6214135;23;20424;-93
2023/10/16 19:45:17;;;;;;;10.75;5.35;;;7.40;99.90;;;;;;6215057;23;20373;-94
2023/10/16 19:48:09;;;;;;;7.97;4.85;;;7.30;99.90;;;;;;6212914;23;20549;-95
2023/10/16 19:50:40;;;;;;;9.43;4.60;;;8.00;99.90;;;;;;6217256;23;20404;-94
2023/10/16 19:53:08;;;;;;;9.80;5.05;;;7.30;99.90;;;;;;6215300;23;20680;-94
2023/10/16 19:55:37;;;;;;;10.87;5.20;;;7.30;99.90;;;;;;6213548;23;20399;-94
2023/10/16 19:58:24;;;;;;;10.25;5.50;;;7.30;99.90;;;;;;6224378;23;20374;-93
2023/10/16 20:01:11;;;;;;;8.60;4.78;;;7.20;99.90;;;;;;6228278;23;20436;-95
2023/10/16 20:04:18;;;;;;;11.40;5.75;;;7.30;99.90;;;;;;6222680;23;20401;-95
2023/10/16 20:06:49;;;;;;;13.70;6.47;;;7.20;99.90;;;;;;6225828;23;20388;-93
2023/10/16 20:09:23;;;;;;;9.27;5.72;;;7.20;99.90;;;;;;6216396;23;20570;-94
2023/10/16 20:11:50;;;;;;;8.45;5.57;;;7.20;99.90;;;;;;6214728;23;20373;-94
2023/10/16 20:14:16;;;;;;;11.45;5.07;;;7.50;99.90;;;;;;6213334;23;20392;-91
2023/10/16 20:16:41;;;;;;;6.00;3.60;;;7.20;99.90;;;;;;6214559;23;20468;-94
2023/10/16 20:19:07;;;;;;;7.40;5.23;;;7.10;99.90;;;;;;6212547;23;21025;-95
2023/10/16 20:21:35;;;;;;;8.07;5.32;;;7.20;99.90;;;;;;6214470;23;20421;-96
2023/10/16 20:24:08;;;;;;;9.93;5.82;;;7.10;99.90;;;;;;6212652;23;21003;-94
2023/10/16 20:26:34;;;;;;;10.65;6.28;;;7.10;99.90;;;;;;6214252;23;20361;-95
2023/10/16 20:29:01;;;;;;;8.85;6.10;;;7.00;99.90;;;;;;6216407;23;20377;-94
2023/10/16 20:32:28;;;;;;;11.45;6.25;;;7.40;99.90;;;;;;6220042;23;20381;-94
2023/10/16 20:35:19;;;;;;;9.40;5.97;;;7.00;99.90;;;;;;6162381;23;20373;-96
2023/10/16 20:42:56;;;;;;;23.35;18.63;;;7.00;99.90;;;;;;6187914;23;20389;-94
2023/10/16 20:45:25;;;;;;;21.45;16.50;;;6.90;99.90;;;;;;6128287;23;20373;-94
2023/10/16 20:47:51;;;;;;;21.10;16.37;;;6.90;99.90;;;;;;6128624;23;20383;-94
2023/10/16 20:50:31;;;;;;;22.60;16.20;;;6.80;99.90;;;;;;6126495;23;20761;-94
2023/10/16 20:53:04;;;;;;;19.43;14.47;;;6.80;99.90;;;;;;6128678;23;20373;-93
2023/10/16 20:55:30;;;;;;;15.07;11.75;;;6.80;99.90;;;;;;6129357;23;20912;-95
2023/10/16 20:57:59;;;;;;;14.75;11.02;;;6.70;99.90;;;;;;6127503;23;20830;-93
2023/10/16 21:00:27;;;;;;;14.10;10.30;;;6.60;99.90;;;;;;6128038;23;20370;-94
2023/10/16 21:02:57;;;;;;;14.00;10.48;;;7.00;99.90;;;;;;6128175;23;20873;-94
2023/10/16 21:05:25;;;;;;;13.05;9.25;;;6.60;99.90;;;;;;6129868;23;20380;-94